sensor_id;sensor_type;location;lat;lon;timestamp;P1;durP1;ratioP1;P2;durP2;ratioP2
18364;SDS011;9309;52.126;11.616;2023-04-25T00:01:27;10.33;;;6.27;;
18364;SDS011;9309;52.126;11.616;2023-04-25T00:03:53;12.33;;;6.83;;
18364;SDS011;9309;52.126;11.616;2023-04-25T00:06:20;8.17;;;5.77;;
18364;SDS011;9309;52.126;11.616;2023-04-25T00:08:51;14.33;;;6.13;;
18364;SDS011;9309;52.126;11.616;2023-04-25T00:11:19;11.40;;;6.60;;
18364;SDS011;9309;52.126;11.616;2023-04-25T00:13:46;12.87;;;6.20;;
18364;SDS011;9309;52.126;11.616;2023-04-25T00:16:14;13.93;;;7.10;;
18364;SDS011;9309;52.126;11.616;2023-04-25T00:18:41;16.20;;;7.23;;
18364;SDS011;9309;52.126;11.616;2023-04-25T00:21:08;12.87;;;7.40;;
18364;SDS011;9309;52.126;11.616;2023-04-25T00:23:35;12.40;;;6.90;;
18364;SDS011;9309;52.126;11.616;2023-04-25T00:26:03;12.03;;;6.87;;
18364;SDS011;9309;52.126;11.616;2023-04-25T00:28:31;7.30;;;6.53;;
18364;SDS011;9309;52.126;11.616;2023-04-25T00:30:58;17.03;;;6.50;;
18364;SDS011;9309;52.126;11.616;2023-04-25T00:33:25;11.93;;;6.17;;
18364;SDS011;9309;52.126;11.616;2023-04-25T00:35:52;13.20;;;6.47;;
18364;SDS011;9309;52.126;11.616;2023-04-25T00:38:19;9.83;;;6.33;;
18364;SDS011;9309;52.126;11.616;2023-04-25T00:40:45;11.43;;;6.30;;
18364;SDS011;9309;52.126;11.616;2023-04-25T00:43:12;12.13;;;6.73;;
18364;SDS011;9309;52.126;11.616;2023-04-25T00:45:41;8.17;;;6.37;;
18364;SDS011;9309;52.126;11.616;2023-04-25T00:48:09;11.63;;;6.50;;
18364;SDS011;9309;52.126;11.616;2023-04-25T00:50:36;8.47;;;6.10;;
18364;SDS011;9309;52.126;11.616;2023-04-25T00:53:03;15.57;;;7.10;;
18364;SDS011;9309;52.126;11.616;2023-04-25T00:55:31;9.37;;;6.13;;
18364;SDS011;9309;52.126;11.616;2023-04-25T00:57:59;12.13;;;6.43;;
18364;SDS011;9309;52.126;11.616;2023-04-25T01:00:26;12.43;;;6.77;;
18364;SDS011;9309;52.126;11.616;2023-04-25T01:02:54;15.77;;;6.77;;
18364;SDS011;9309;52.126;11.616;2023-04-25T01:05:21;12.03;;;6.50;;
18364;SDS011;9309;52.126;11.616;2023-04-25T01:07:48;14.00;;;7.13;;
18364;SDS011;9309;52.126;11.616;2023-04-25T01:10:15;14.17;;;6.67;;
18364;SDS011;9309;52.126;11.616;2023-04-25T01:12:42;23.97;;;6.97;;
18364;SDS011;9309;52.126;11.616;2023-04-25T01:15:09;11.13;;;6.53;;
18364;SDS011;9309;52.126;11.616;2023-04-25T01:17:36;11.83;;;7.03;;
18364;SDS011;9309;52.126;11.616;2023-04-25T01:20:06;10.47;;;6.13;;
18364;SDS011;9309;52.126;11.616;2023-04-25T01:22:35;11.23;;;6.63;;
18364;SDS011;9309;52.126;11.616;2023-04-25T01:25:03;13.00;;;6.43;;
18364;SDS011;9309;52.126;11.616;2023-04-25T01:27:31;9.03;;;6.20;;
18364;SDS011;9309;52.126;11.616;2023-04-25T01:29:58;9.07;;;5.97;;
18364;SDS011;9309;52.126;11.616;2023-04-25T01:32:25;14.43;;;6.60;;
18364;SDS011;9309;52.126;11.616;2023-04-25T01:34:53;11.00;;;6.63;;
18364;SDS011;9309;52.126;11.616;2023-04-25T01:37:20;12.07;;;6.90;;
18364;SDS011;9309;52.126;11.616;2023-04-25T01:39:48;12.23;;;6.00;;
18364;SDS011;9309;52.126;11.616;2023-04-25T01:42:16;13.90;;;6.07;;
18364;SDS011;9309;52.126;11.616;2023-04-25T01:44:44;12.10;;;5.87;;
18364;SDS011;9309;52.126;11.616;2023-04-25T01:47:11;17.67;;;6.07;;
18364;SDS011;9309;52.126;11.616;2023-04-25T01:49:38;10.63;;;5.80;;
18364;SDS011;9309;52.126;11.616;2023-04-25T01:52:04;9.33;;;5.60;;
18364;SDS011;9309;52.126;11.616;2023-04-25T01:54:31;14.90;;;5.93;;
18364;SDS011;9309;52.126;11.616;2023-04-25T01:56:59;12.87;;;6.00;;
18364;SDS011;9309;52.126;11.616;2023-04-25T01:59:27;10.63;;;5.40;;
18364;SDS011;9309;52.126;11.616;2023-04-25T02:02:03;12.80;;;6.33;;
18364;SDS011;9309;52.126;11.616;2023-04-25T02:04:31;13.70;;;6.53;;
18364;SDS011;9309;52.126;11.616;2023-04-25T02:06:58;12.77;;;6.23;;
18364;SDS011;9309;52.126;11.616;2023-04-25T02:09:33;11.07;;;5.63;;
18364;SDS011;9309;52.126;11.616;2023-04-25T02:12:07;12.23;;;5.87;;
18364;SDS011;9309;52.126;11.616;2023-04-25T02:14:53;12.27;;;5.70;;
18364;SDS011;9309;52.126;11.616;2023-04-25T02:17:49;12.87;;;5.93;;
18364;SDS011;9309;52.126;11.616;2023-04-25T02:20:17;8.40;;;5.50;;
18364;SDS011;9309;52.126;11.616;2023-04-25T02:22:45;14.17;;;5.57;;
18364;SDS011;9309;52.126;11.616;2023-04-25T02:25:12;11.93;;;6.33;;
18364;SDS011;9309;52.126;11.616;2023-04-25T02:27:41;13.30;;;6.57;;
18364;SDS011;9309;52.126;11.616;2023-04-25T02:30:08;13.87;;;6.33;;
18364;SDS011;9309;52.126;11.616;2023-04-25T02:32:35;21.07;;;6.80;;
18364;SDS011;9309;52.126;11.616;2023-04-25T02:35:02;15.93;;;6.70;;
18364;SDS011;9309;52.126;11.616;2023-04-25T02:37:29;11.40;;;6.30;;
18364;SDS011;9309;52.126;11.616;2023-04-25T02:39:56;17.63;;;6.23;;
18364;SDS011;9309;52.126;11.616;2023-04-25T02:42:23;13.30;;;6.00;;
18364;SDS011;9309;52.126;11.616;2023-04-25T02:44:51;10.70;;;5.83;;
18364;SDS011;9309;52.126;11.616;2023-04-25T02:47:19;15.57;;;6.10;;
18364;SDS011;9309;52.126;11.616;2023-04-25T02:49:46;15.43;;;6.33;;
18364;SDS011;9309;52.126;11.616;2023-04-25T02:52:13;18.37;;;6.23;;
18364;SDS011;9309;52.126;11.616;2023-04-25T02:54:40;18.90;;;7.47;;
18364;SDS011;9309;52.126;11.616;2023-04-25T02:57:07;13.93;;;6.60;;
18364;SDS011;9309;52.126;11.616;2023-04-25T02:59:36;12.43;;;6.83;;
18364;SDS011;9309;52.126;11.616;2023-04-25T03:02:04;12.37;;;6.70;;
18364;SDS011;9309;52.126;11.616;2023-04-25T03:04:31;12.80;;;6.77;;
18364;SDS011;9309;52.126;11.616;2023-04-25T03:06:58;16.60;;;7.43;;
18364;SDS011;9309;52.126;11.616;2023-04-25T03:09:26;26.03;;;8.00;;
18364;SDS011;9309;52.126;11.616;2023-04-25T03:11:52;15.77;;;7.27;;
18364;SDS011;9309;52.126;11.616;2023-04-25T03:14:19;18.60;;;6.80;;
18364;SDS011;9309;52.126;11.616;2023-04-25T03:16:46;16.93;;;7.30;;
18364;SDS011;9309;52.126;11.616;2023-04-25T03:19:14;19.37;;;6.63;;
18364;SDS011;9309;52.126;11.616;2023-04-25T03:21:42;16.37;;;7.10;;
18364;SDS011;9309;52.126;11.616;2023-04-25T03:24:09;15.80;;;7.10;;
18364;SDS011;9309;52.126;11.616;2023-04-25T03:26:36;13.63;;;7.20;;
18364;SDS011;9309;52.126;11.616;2023-04-25T03:29:04;17.73;;;7.27;;
18364;SDS011;9309;52.126;11.616;2023-04-25T03:31:30;27.70;;;7.10;;
18364;SDS011;9309;52.126;11.616;2023-04-25T03:33:58;13.57;;;7.47;;
18364;SDS011;9309;52.126;11.616;2023-04-25T03:36:26;15.60;;;7.40;;
18364;SDS011;9309;52.126;11.616;2023-04-25T03:38:53;15.73;;;6.57;;
18364;SDS011;9309;52.126;11.616;2023-04-25T03:41:21;19.00;;;8.60;;
18364;SDS011;9309;52.126;11.616;2023-04-25T03:43:52;14.67;;;6.80;;
18364;SDS011;9309;52.126;11.616;2023-04-25T03:46:19;15.60;;;7.90;;
18364;SDS011;9309;52.126;11.616;2023-04-25T03:48:47;12.00;;;7.03;;
18364;SDS011;9309;52.126;11.616;2023-04-25T03:51:20;18.93;;;7.50;;
18364;SDS011;9309;52.126;11.616;2023-04-25T03:53:48;19.80;;;7.73;;
18364;SDS011;9309;52.126;11.616;2023-04-25T03:56:18;19.63;;;7.73;;
18364;SDS011;9309;52.126;11.616;2023-04-25T03:58:46;20.97;;;8.60;;
18364;SDS011;9309;52.126;11.616;2023-04-25T04:01:15;23.27;;;9.13;;
18364;SDS011;9309;52.126;11.616;2023-04-25T04:03:42;32.33;;;10.33;;
18364;SDS011;9309;52.126;11.616;2023-04-25T04:06:09;62.73;;;23.43;;
18364;SDS011;9309;52.126;11.616;2023-04-25T04:08:39;45.87;;;21.83;;
18364;SDS011;9309;52.126;11.616;2023-04-25T04:11:07;26.67;;;12.30;;
18364;SDS011;9309;52.126;11.616;2023-04-25T04:13:34;24.77;;;9.70;;
18364;SDS011;9309;52.126;11.616;2023-04-25T04:16:01;15.40;;;8.17;;
18364;SDS011;9309;52.126;11.616;2023-04-25T04:18:29;20.20;;;9.80;;
18364;SDS011;9309;52.126;11.616;2023-04-25T04:20:56;26.80;;;9.57;;
18364;SDS011;9309;52.126;11.616;2023-04-25T04:23:23;21.47;;;8.50;;
18364;SDS011;9309;52.126;11.616;2023-04-25T04:25:52;17.50;;;8.77;;
18364;SDS011;9309;52.126;11.616;2023-04-25T04:28:30;12.03;;;7.77;;
18364;SDS011;9309;52.126;11.616;2023-04-25T04:31:01;11.83;;;7.60;;
18364;SDS011;9309;52.126;11.616;2023-04-25T04:33:28;15.20;;;7.83;;
18364;SDS011;9309;52.126;11.616;2023-04-25T04:35:58;20.20;;;7.93;;
18364;SDS011;9309;52.126;11.616;2023-04-25T04:38:26;18.83;;;8.43;;
18364;SDS011;9309;52.126;11.616;2023-04-25T04:40:56;15.77;;;9.00;;
18364;SDS011;9309;52.126;11.616;2023-04-25T04:43:32;20.07;;;8.77;;
18364;SDS011;9309;52.126;11.616;2023-04-25T04:46:07;17.43;;;8.50;;
18364;SDS011;9309;52.126;11.616;2023-04-25T04:48:54;16.30;;;8.90;;
18364;SDS011;9309;52.126;11.616;2023-04-25T04:51:41;23.23;;;9.43;;
18364;SDS011;9309;52.126;11.616;2023-04-25T04:54:29;18.20;;;8.70;;
18364;SDS011;9309;52.126;11.616;2023-04-25T04:57:10;19.47;;;9.83;;
18364;SDS011;9309;52.126;11.616;2023-04-25T04:59:54;27.03;;;9.50;;
18364;SDS011;9309;52.126;11.616;2023-04-25T05:02:41;18.67;;;9.07;;
18364;SDS011;9309;52.126;11.616;2023-04-25T05:05:28;20.20;;;9.40;;
18364;SDS011;9309;52.126;11.616;2023-04-25T05:08:18;25.30;;;9.60;;
18364;SDS011;9309;52.126;11.616;2023-04-25T05:10:54;22.80;;;10.07;;
18364;SDS011;9309;52.126;11.616;2023-04-25T05:13:49;31.97;;;10.90;;
18364;SDS011;9309;52.126;11.616;2023-04-25T05:16:37;18.57;;;10.20;;
18364;SDS011;9309;52.126;11.616;2023-04-25T05:19:19;26.17;;;10.80;;
18364;SDS011;9309;52.126;11.616;2023-04-25T05:22:14;20.47;;;10.30;;
18364;SDS011;9309;52.126;11.616;2023-04-25T05:25:13;21.87;;;11.03;;
18364;SDS011;9309;52.126;11.616;2023-04-25T05:28:04;21.83;;;10.33;;
18364;SDS011;9309;52.126;11.616;2023-04-25T05:30:52;28.53;;;11.07;;
18364;SDS011;9309;52.126;11.616;2023-04-25T05:33:27;26.63;;;11.43;;
18364;SDS011;9309;52.126;11.616;2023-04-25T05:35:53;27.10;;;11.90;;
18364;SDS011;9309;52.126;11.616;2023-04-25T05:38:21;24.50;;;10.87;;
18364;SDS011;9309;52.126;11.616;2023-04-25T05:41:06;28.03;;;11.53;;
18364;SDS011;9309;52.126;11.616;2023-04-25T05:43:55;25.93;;;12.23;;
18364;SDS011;9309;52.126;11.616;2023-04-25T05:46:25;22.70;;;10.90;;
18364;SDS011;9309;52.126;11.616;2023-04-25T05:49:17;18.17;;;9.13;;
18364;SDS011;9309;52.126;11.616;2023-04-25T05:52:07;14.10;;;8.23;;
18364;SDS011;9309;52.126;11.616;2023-04-25T05:54:53;17.37;;;7.60;;
18364;SDS011;9309;52.126;11.616;2023-04-25T05:57:20;13.40;;;7.50;;
18364;SDS011;9309;52.126;11.616;2023-04-25T05:59:48;17.07;;;7.70;;
18364;SDS011;9309;52.126;11.616;2023-04-25T06:02:15;10.07;;;6.13;;
18364;SDS011;9309;52.126;11.616;2023-04-25T06:04:43;12.33;;;5.83;;
18364;SDS011;9309;52.126;11.616;2023-04-25T06:07:10;12.40;;;5.30;;
18364;SDS011;9309;52.126;11.616;2023-04-25T06:09:38;13.57;;;5.30;;
18364;SDS011;9309;52.126;11.616;2023-04-25T06:12:05;12.70;;;4.97;;
18364;SDS011;9309;52.126;11.616;2023-04-25T06:14:32;18.70;;;5.67;;
18364;SDS011;9309;52.126;11.616;2023-04-25T06:16:58;16.70;;;5.07;;
18364;SDS011;9309;52.126;11.616;2023-04-25T06:19:31;12.23;;;4.67;;
18364;SDS011;9309;52.126;11.616;2023-04-25T06:21:59;13.27;;;4.23;;
18364;SDS011;9309;52.126;11.616;2023-04-25T06:24:26;14.80;;;4.63;;
18364;SDS011;9309;52.126;11.616;2023-04-25T06:26:53;15.87;;;5.33;;
18364;SDS011;9309;52.126;11.616;2023-04-25T06:29:20;20.77;;;4.83;;
18364;SDS011;9309;52.126;11.616;2023-04-25T06:31:47;17.40;;;4.93;;
18364;SDS011;9309;52.126;11.616;2023-04-25T06:34:14;21.03;;;5.33;;
18364;SDS011;9309;52.126;11.616;2023-04-25T06:36:41;20.97;;;4.67;;
18364;SDS011;9309;52.126;11.616;2023-04-25T06:39:13;30.20;;;5.37;;
18364;SDS011;9309;52.126;11.616;2023-04-25T06:41:40;20.63;;;5.23;;
18364;SDS011;9309;52.126;11.616;2023-04-25T06:44:14;26.87;;;5.23;;
18364;SDS011;9309;52.126;11.616;2023-04-25T06:46:50;18.63;;;5.10;;
18364;SDS011;9309;52.126;11.616;2023-04-25T06:49:17;19.27;;;5.20;;
18364;SDS011;9309;52.126;11.616;2023-04-25T06:51:44;25.67;;;6.17;;
18364;SDS011;9309;52.126;11.616;2023-04-25T06:54:11;17.20;;;5.53;;
18364;SDS011;9309;52.126;11.616;2023-04-25T06:56:46;19.53;;;5.33;;
18364;SDS011;9309;52.126;11.616;2023-04-25T06:59:14;20.00;;;6.00;;
18364;SDS011;9309;52.126;11.616;2023-04-25T07:01:42;22.20;;;4.70;;
18364;SDS011;9309;52.126;11.616;2023-04-25T07:04:23;21.37;;;5.37;;
18364;SDS011;9309;52.126;11.616;2023-04-25T07:06:57;22.93;;;5.70;;
18364;SDS011;9309;52.126;11.616;2023-04-25T07:09:32;30.87;;;6.13;;
18364;SDS011;9309;52.126;11.616;2023-04-25T07:12:00;21.70;;;5.30;;
18364;SDS011;9309;52.126;11.616;2023-04-25T07:14:27;13.83;;;4.90;;
18364;SDS011;9309;52.126;11.616;2023-04-25T07:16:54;20.57;;;4.93;;
18364;SDS011;9309;52.126;11.616;2023-04-25T07:19:23;28.27;;;5.83;;
18364;SDS011;9309;52.126;11.616;2023-04-25T07:21:53;23.27;;;5.77;;
18364;SDS011;9309;52.126;11.616;2023-04-25T07:24:20;22.43;;;5.20;;
18364;SDS011;9309;52.126;11.616;2023-04-25T07:26:48;17.53;;;4.97;;
18364;SDS011;9309;52.126;11.616;2023-04-25T07:29:39;21.53;;;3.63;;
18364;SDS011;9309;52.126;11.616;2023-04-25T07:32:07;13.73;;;4.33;;
18364;SDS011;9309;52.126;11.616;2023-04-25T07:34:33;22.67;;;4.40;;
18364;SDS011;9309;52.126;11.616;2023-04-25T07:37:02;19.43;;;4.33;;
18364;SDS011;9309;52.126;11.616;2023-04-25T07:39:36;20.17;;;4.17;;
18364;SDS011;9309;52.126;11.616;2023-04-25T07:42:03;19.33;;;4.93;;
18364;SDS011;9309;52.126;11.616;2023-04-25T07:44:33;14.80;;;4.20;;
18364;SDS011;9309;52.126;11.616;2023-04-25T07:47:06;17.23;;;4.10;;
18364;SDS011;9309;52.126;11.616;2023-04-25T07:49:33;24.17;;;8.33;;
18364;SDS011;9309;52.126;11.616;2023-04-25T07:52:00;14.03;;;4.90;;
18364;SDS011;9309;52.126;11.616;2023-04-25T07:54:28;13.63;;;4.77;;
18364;SDS011;9309;52.126;11.616;2023-04-25T07:57:00;6.30;;;3.60;;
18364;SDS011;9309;52.126;11.616;2023-04-25T07:59:29;17.73;;;4.30;;
18364;SDS011;9309;52.126;11.616;2023-04-25T08:01:59;14.73;;;3.63;;
18364;SDS011;9309;52.126;11.616;2023-04-25T08:04:27;13.03;;;4.27;;
18364;SDS011;9309;52.126;11.616;2023-04-25T08:06:59;7.90;;;3.20;;
18364;SDS011;9309;52.126;11.616;2023-04-25T08:09:30;17.37;;;4.27;;
18364;SDS011;9309;52.126;11.616;2023-04-25T08:11:59;17.97;;;4.10;;
18364;SDS011;9309;52.126;11.616;2023-04-25T08:14:30;13.83;;;3.80;;
18364;SDS011;9309;52.126;11.616;2023-04-25T08:17:01;23.90;;;3.73;;
18364;SDS011;9309;52.126;11.616;2023-04-25T08:19:30;14.83;;;4.07;;
18364;SDS011;9309;52.126;11.616;2023-04-25T08:21:56;14.90;;;4.37;;
18364;SDS011;9309;52.126;11.616;2023-04-25T08:24:30;13.70;;;3.50;;
18364;SDS011;9309;52.126;11.616;2023-04-25T08:26:57;16.33;;;3.90;;
18364;SDS011;9309;52.126;11.616;2023-04-25T08:29:26;16.10;;;3.50;;
18364;SDS011;9309;52.126;11.616;2023-04-25T08:31:53;15.07;;;3.93;;
18364;SDS011;9309;52.126;11.616;2023-04-25T08:34:20;17.27;;;4.37;;
18364;SDS011;9309;52.126;11.616;2023-04-25T08:36:49;19.93;;;3.83;;
18364;SDS011;9309;52.126;11.616;2023-04-25T08:39:21;15.53;;;3.80;;
18364;SDS011;9309;52.126;11.616;2023-04-25T08:42:16;10.23;;;3.57;;
18364;SDS011;9309;52.126;11.616;2023-04-25T08:44:43;11.60;;;3.27;;
18364;SDS011;9309;52.126;11.616;2023-04-25T08:47:11;11.77;;;3.57;;
18364;SDS011;9309;52.126;11.616;2023-04-25T08:49:45;18.10;;;4.20;;
18364;SDS011;9309;52.126;11.616;2023-04-25T08:52:13;15.80;;;3.50;;
18364;SDS011;9309;52.126;11.616;2023-04-25T08:54:41;8.33;;;3.13;;
18364;SDS011;9309;52.126;11.616;2023-04-25T08:57:10;17.37;;;3.30;;
18364;SDS011;9309;52.126;11.616;2023-04-25T08:59:38;21.87;;;4.40;;
18364;SDS011;9309;52.126;11.616;2023-04-25T09:02:10;9.53;;;3.40;;
18364;SDS011;9309;52.126;11.616;2023-04-25T09:04:39;8.10;;;3.30;;
18364;SDS011;9309;52.126;11.616;2023-04-25T09:07:06;15.87;;;4.07;;
18364;SDS011;9309;52.126;11.616;2023-04-25T09:09:34;13.47;;;4.10;;
18364;SDS011;9309;52.126;11.616;2023-04-25T09:12:01;12.90;;;2.90;;
18364;SDS011;9309;52.126;11.616;2023-04-25T09:14:28;15.27;;;3.77;;
18364;SDS011;9309;52.126;11.616;2023-04-25T09:17:22;5.27;;;3.07;;
18364;SDS011;9309;52.126;11.616;2023-04-25T09:19:52;11.50;;;3.57;;
18364;SDS011;9309;52.126;11.616;2023-04-25T09:22:24;14.17;;;3.83;;
18364;SDS011;9309;52.126;11.616;2023-04-25T09:24:52;6.47;;;3.47;;
18364;SDS011;9309;52.126;11.616;2023-04-25T09:27:23;12.80;;;3.93;;
18364;SDS011;9309;52.126;11.616;2023-04-25T09:30:02;15.03;;;3.53;;
18364;SDS011;9309;52.126;11.616;2023-04-25T09:32:45;13.47;;;3.20;;
18364;SDS011;9309;52.126;11.616;2023-04-25T09:35:22;11.10;;;3.30;;
18364;SDS011;9309;52.126;11.616;2023-04-25T09:37:50;7.67;;;3.00;;
18364;SDS011;9309;52.126;11.616;2023-04-25T09:40:39;9.20;;;2.80;;
18364;SDS011;9309;52.126;11.616;2023-04-25T09:43:18;17.83;;;4.00;;
18364;SDS011;9309;52.126;11.616;2023-04-25T09:45:46;11.90;;;2.90;;
18364;SDS011;9309;52.126;11.616;2023-04-25T09:48:16;8.40;;;2.87;;
18364;SDS011;9309;52.126;11.616;2023-04-25T09:50:51;14.50;;;3.20;;
18364;SDS011;9309;52.126;11.616;2023-04-25T09:53:30;12.40;;;3.20;;
18364;SDS011;9309;52.126;11.616;2023-04-25T09:56:10;5.57;;;2.50;;
18364;SDS011;9309;52.126;11.616;2023-04-25T09:58:38;11.63;;;3.00;;
18364;SDS011;9309;52.126;11.616;2023-04-25T10:01:06;11.03;;;3.40;;
18364;SDS011;9309;52.126;11.616;2023-04-25T10:03:44;17.80;;;3.27;;
18364;SDS011;9309;52.126;11.616;2023-04-25T10:06:39;4.93;;;2.57;;
18364;SDS011;9309;52.126;11.616;2023-04-25T10:09:09;17.40;;;3.43;;
18364;SDS011;9309;52.126;11.616;2023-04-25T10:11:38;8.70;;;3.23;;
18364;SDS011;9309;52.126;11.616;2023-04-25T10:14:06;10.03;;;3.90;;
18364;SDS011;9309;52.126;11.616;2023-04-25T10:16:33;19.37;;;3.50;;
18364;SDS011;9309;52.126;11.616;2023-04-25T10:19:00;9.70;;;3.27;;
18364;SDS011;9309;52.126;11.616;2023-04-25T10:21:28;7.77;;;3.03;;
18364;SDS011;9309;52.126;11.616;2023-04-25T10:23:57;17.80;;;3.57;;
18364;SDS011;9309;52.126;11.616;2023-04-25T10:26:24;15.13;;;3.53;;
18364;SDS011;9309;52.126;11.616;2023-04-25T10:28:57;13.63;;;4.00;;
18364;SDS011;9309;52.126;11.616;2023-04-25T10:31:24;9.60;;;3.57;;
18364;SDS011;9309;52.126;11.616;2023-04-25T10:33:51;12.07;;;3.43;;
18364;SDS011;9309;52.126;11.616;2023-04-25T10:36:20;13.73;;;3.33;;
18364;SDS011;9309;52.126;11.616;2023-04-25T10:38:50;12.13;;;3.30;;
18364;SDS011;9309;52.126;11.616;2023-04-25T10:41:17;16.27;;;4.43;;
18364;SDS011;9309;52.126;11.616;2023-04-25T10:43:46;14.70;;;3.77;;
18364;SDS011;9309;52.126;11.616;2023-04-25T10:46:16;12.67;;;3.90;;
18364;SDS011;9309;52.126;11.616;2023-04-25T10:48:45;13.93;;;4.50;;
18364;SDS011;9309;52.126;11.616;2023-04-25T10:51:16;10.70;;;3.53;;
18364;SDS011;9309;52.126;11.616;2023-04-25T10:53:44;10.23;;;3.33;;
18364;SDS011;9309;52.126;11.616;2023-04-25T10:56:11;10.63;;;3.33;;
18364;SDS011;9309;52.126;11.616;2023-04-25T10:58:43;9.00;;;3.53;;
18364;SDS011;9309;52.126;11.616;2023-04-25T11:01:10;6.67;;;3.00;;
18364;SDS011;9309;52.126;11.616;2023-04-25T11:03:39;6.23;;;2.83;;
18364;SDS011;9309;52.126;11.616;2023-04-25T11:06:09;12.10;;;4.33;;
18364;SDS011;9309;52.126;11.616;2023-04-25T11:08:47;9.00;;;2.77;;
18364;SDS011;9309;52.126;11.616;2023-04-25T11:11:15;11.27;;;3.30;;
18364;SDS011;9309;52.126;11.616;2023-04-25T11:13:42;8.77;;;3.47;;
18364;SDS011;9309;52.126;11.616;2023-04-25T11:16:08;8.40;;;2.90;;
18364;SDS011;9309;52.126;11.616;2023-04-25T11:18:35;5.00;;;2.50;;
18364;SDS011;9309;52.126;11.616;2023-04-25T11:21:04;11.67;;;3.33;;
18364;SDS011;9309;52.126;11.616;2023-04-25T11:23:32;6.07;;;2.63;;
18364;SDS011;9309;52.126;11.616;2023-04-25T11:25:58;11.43;;;3.07;;
18364;SDS011;9309;52.126;11.616;2023-04-25T11:32:14;9.03;;;2.50;;
18364;SDS011;9309;52.126;11.616;2023-04-25T11:34:42;4.67;;;2.70;;
18364;SDS011;9309;52.126;11.616;2023-04-25T11:37:11;7.23;;;3.23;;
18364;SDS011;9309;52.126;11.616;2023-04-25T11:39:39;5.27;;;3.13;;
18364;SDS011;9309;52.126;11.616;2023-04-25T11:42:10;7.47;;;2.50;;
18364;SDS011;9309;52.126;11.616;2023-04-25T11:44:37;10.07;;;2.60;;
18364;SDS011;9309;52.126;11.616;2023-04-25T11:47:05;8.43;;;3.00;;
18364;SDS011;9309;52.126;11.616;2023-04-25T11:49:32;5.53;;;2.93;;
18364;SDS011;9309;52.126;11.616;2023-04-25T11:52:00;9.07;;;3.17;;
18364;SDS011;9309;52.126;11.616;2023-04-25T11:54:28;4.40;;;2.77;;
18364;SDS011;9309;52.126;11.616;2023-04-25T11:56:55;8.17;;;2.80;;
18364;SDS011;9309;52.126;11.616;2023-04-25T11:59:23;8.17;;;2.90;;
18364;SDS011;9309;52.126;11.616;2023-04-25T12:01:51;9.30;;;2.93;;
18364;SDS011;9309;52.126;11.616;2023-04-25T12:04:18;7.40;;;2.80;;
18364;SDS011;9309;52.126;11.616;2023-04-25T12:06:46;4.17;;;2.27;;
18364;SDS011;9309;52.126;11.616;2023-04-25T12:09:16;15.57;;;2.60;;
18364;SDS011;9309;52.126;11.616;2023-04-25T12:11:46;8.47;;;2.90;;
18364;SDS011;9309;52.126;11.616;2023-04-25T12:14:20;8.03;;;2.70;;
18364;SDS011;9309;52.126;11.616;2023-04-25T12:16:49;3.57;;;2.83;;
18364;SDS011;9309;52.126;11.616;2023-04-25T12:19:17;4.57;;;2.23;;
18364;SDS011;9309;52.126;11.616;2023-04-25T12:21:45;7.63;;;2.80;;
18364;SDS011;9309;52.126;11.616;2023-04-25T12:24:12;6.40;;;2.60;;
18364;SDS011;9309;52.126;11.616;2023-04-25T12:26:49;9.50;;;2.47;;
18364;SDS011;9309;52.126;11.616;2023-04-25T12:29:20;7.83;;;2.23;;
18364;SDS011;9309;52.126;11.616;2023-04-25T12:31:48;4.30;;;2.53;;
18364;SDS011;9309;52.126;11.616;2023-04-25T12:34:16;6.90;;;2.67;;
18364;SDS011;9309;52.126;11.616;2023-04-25T12:36:43;9.53;;;2.60;;
18364;SDS011;9309;52.126;11.616;2023-04-25T12:39:13;7.93;;;2.67;;
18364;SDS011;9309;52.126;11.616;2023-04-25T12:41:41;4.50;;;2.60;;
18364;SDS011;9309;52.126;11.616;2023-04-25T12:44:09;9.70;;;2.47;;
18364;SDS011;9309;52.126;11.616;2023-04-25T12:46:36;4.27;;;2.50;;
18364;SDS011;9309;52.126;11.616;2023-04-25T12:49:03;10.40;;;3.10;;
18364;SDS011;9309;52.126;11.616;2023-04-25T12:51:31;4.63;;;2.50;;
18364;SDS011;9309;52.126;11.616;2023-04-25T12:53:57;2.80;;;2.20;;
18364;SDS011;9309;52.126;11.616;2023-04-25T12:59:21;2.43;;;2.33;;
18364;SDS011;9309;52.126;11.616;2023-04-25T13:01:48;4.53;;;2.63;;
18364;SDS011;9309;52.126;11.616;2023-04-25T13:04:14;9.93;;;2.90;;
18364;SDS011;9309;52.126;11.616;2023-04-25T13:06:41;4.83;;;2.60;;
18364;SDS011;9309;52.126;11.616;2023-04-25T13:09:08;5.40;;;2.37;;
18364;SDS011;9309;52.126;11.616;2023-04-25T13:11:36;4.30;;;2.70;;
18364;SDS011;9309;52.126;11.616;2023-04-25T13:14:03;4.57;;;2.50;;
18364;SDS011;9309;52.126;11.616;2023-04-25T13:16:32;12.73;;;3.87;;
18364;SDS011;9309;52.126;11.616;2023-04-25T13:18:58;6.90;;;2.80;;
18364;SDS011;9309;52.126;11.616;2023-04-25T13:21:25;7.43;;;2.80;;
18364;SDS011;9309;52.126;11.616;2023-04-25T13:23:52;5.00;;;2.53;;
18364;SDS011;9309;52.126;11.616;2023-04-25T13:26:18;9.83;;;2.73;;
18364;SDS011;9309;52.126;11.616;2023-04-25T13:28:45;2.80;;;2.20;;
18364;SDS011;9309;52.126;11.616;2023-04-25T13:31:12;3.30;;;2.10;;
18364;SDS011;9309;52.126;11.616;2023-04-25T13:33:40;3.37;;;2.30;;
18364;SDS011;9309;52.126;11.616;2023-04-25T13:36:06;2.77;;;2.30;;
18364;SDS011;9309;52.126;11.616;2023-04-25T13:38:33;4.63;;;2.00;;
18364;SDS011;9309;52.126;11.616;2023-04-25T13:40:59;3.90;;;1.90;;
18364;SDS011;9309;52.126;11.616;2023-04-25T13:43:26;6.40;;;1.80;;
18364;SDS011;9309;52.126;11.616;2023-04-25T13:45:53;3.40;;;2.10;;
18364;SDS011;9309;52.126;11.616;2023-04-25T13:48:19;4.33;;;1.63;;
18364;SDS011;9309;52.126;11.616;2023-04-25T13:50:49;3.87;;;1.90;;
18364;SDS011;9309;52.126;11.616;2023-04-25T13:53:15;2.20;;;2.00;;
18364;SDS011;9309;52.126;11.616;2023-04-25T13:55:42;8.57;;;2.50;;
18364;SDS011;9309;52.126;11.616;2023-04-25T13:58:09;5.47;;;3.13;;
18364;SDS011;9309;52.126;11.616;2023-04-25T14:00:36;8.80;;;2.17;;
18364;SDS011;9309;52.126;11.616;2023-04-25T14:03:04;5.80;;;2.20;;
18364;SDS011;9309;52.126;11.616;2023-04-25T14:05:32;6.53;;;2.33;;
18364;SDS011;9309;52.126;11.616;2023-04-25T14:08:04;3.00;;;2.03;;
18364;SDS011;9309;52.126;11.616;2023-04-25T14:10:32;3.80;;;2.30;;
18364;SDS011;9309;52.126;11.616;2023-04-25T14:12:59;2.13;;;1.83;;
18364;SDS011;9309;52.126;11.616;2023-04-25T14:15:28;2.90;;;1.90;;
18364;SDS011;9309;52.126;11.616;2023-04-25T14:17:56;5.53;;;2.10;;
18364;SDS011;9309;52.126;11.616;2023-04-25T14:20:22;6.40;;;2.13;;
18364;SDS011;9309;52.126;11.616;2023-04-25T14:22:49;4.83;;;2.83;;
18364;SDS011;9309;52.126;11.616;2023-04-25T14:25:18;3.53;;;2.23;;
18364;SDS011;9309;52.126;11.616;2023-04-25T14:27:45;2.47;;;1.90;;
18364;SDS011;9309;52.126;11.616;2023-04-25T14:30:14;4.00;;;1.93;;
18364;SDS011;9309;52.126;11.616;2023-04-25T14:32:41;4.30;;;1.90;;
18364;SDS011;9309;52.126;11.616;2023-04-25T14:35:08;4.40;;;2.20;;
18364;SDS011;9309;52.126;11.616;2023-04-25T14:37:35;3.57;;;2.30;;
18364;SDS011;9309;52.126;11.616;2023-04-25T14:40:02;7.10;;;2.20;;
18364;SDS011;9309;52.126;11.616;2023-04-25T14:42:31;5.77;;;2.20;;
18364;SDS011;9309;52.126;11.616;2023-04-25T14:44:59;5.10;;;2.40;;
18364;SDS011;9309;52.126;11.616;2023-04-25T14:47:25;4.67;;;2.40;;
18364;SDS011;9309;52.126;11.616;2023-04-25T14:49:52;3.80;;;1.73;;
18364;SDS011;9309;52.126;11.616;2023-04-25T14:52:19;3.87;;;2.00;;
18364;SDS011;9309;52.126;11.616;2023-04-25T14:54:46;3.47;;;2.00;;
18364;SDS011;9309;52.126;11.616;2023-04-25T14:57:13;4.83;;;1.90;;
18364;SDS011;9309;52.126;11.616;2023-04-25T14:59:41;3.40;;;2.37;;
18364;SDS011;9309;52.126;11.616;2023-04-25T15:02:08;2.10;;;1.90;;